createdAt,value
2022-10-05T00:01:29.925Z,12.27
2022-10-05T00:04:03.891Z,11.48
2022-10-05T00:06:32.180Z,11.65
2022-10-05T00:09:02.480Z,12.13
2022-10-05T00:11:32.882Z,11.77
2022-10-05T00:14:01.150Z,12.95
2022-10-05T00:16:31.013Z,11.98
2022-10-05T00:19:01.198Z,12.90
2022-10-05T00:21:30.830Z,12.57
2022-10-05T00:23:59.874Z,12.70
2022-10-05T00:26:45.246Z,12.18
2022-10-05T00:29:22.058Z,10.85
2022-10-05T00:31:51.413Z,11.20
2022-10-05T00:34:19.894Z,11.10
2022-10-05T00:36:48.767Z,11.57
2022-10-05T00:39:19.753Z,12.18
2022-10-05T00:42:06.897Z,11.60
2022-10-05T00:44:41.991Z,10.95
2022-10-05T00:47:28.010Z,11.60
2022-10-05T00:50:23.480Z,11.10
2022-10-05T00:52:58.278Z,11.88
2022-10-05T00:55:36.998Z,11.27
2022-10-05T00:58:17.947Z,11.73
2022-10-05T01:00:57.118Z,11.93
2022-10-05T01:03:32.271Z,10.52
2022-10-05T01:06:12.562Z,10.65
2022-10-05T01:08:49.927Z,9.80
2022-10-05T01:11:24.880Z,10.68
2022-10-05T01:14:13.429Z,11.05
2022-10-05T01:16:52.255Z,10.70
2022-10-05T01:19:41.498Z,10.43
2022-10-05T01:22:18.035Z,10.43
2022-10-05T01:25:04.031Z,10.32
2022-10-05T01:27:49.777Z,10.27
2022-10-05T01:30:20.534Z,10.88
2022-10-05T01:32:55.770Z,10.63
2022-10-05T01:35:44.004Z,10.02
2022-10-05T01:38:28.369Z,10.15
2022-10-05T01:41:04.184Z,10.93
2022-10-05T01:43:39.868Z,11.65
2022-10-05T01:46:20.538Z,11.55
2022-10-05T01:49:03.417Z,11.57
2022-10-05T01:51:39.137Z,10.63
2022-10-05T01:54:19.959Z,10.43
2022-10-05T01:56:58.434Z,10.45
2022-10-05T01:59:38.290Z,10.98
2022-10-05T02:02:10.771Z,10.80
2022-10-05T02:05:01.395Z,9.95
2022-10-05T02:07:37.346Z,10.52
2022-10-05T02:10:10.107Z,11.27
2022-10-05T02:12:39.700Z,11.07
2022-10-05T02:15:15.791Z,10.90
2022-10-05T02:17:49.541Z,11.18
2022-10-05T02:20:26.099Z,10.63
2022-10-05T02:22:57.187Z,11.25
2022-10-05T02:25:31.463Z,10.50
2022-10-05T02:28:05.404Z,12.23
2022-10-05T02:30:42.746Z,11.88
2022-10-05T02:33:18.875Z,11.57
2022-10-05T02:35:47.706Z,12.00
2022-10-05T02:38:28.518Z,11.80
2022-10-05T02:41:05.358Z,11.98
2022-10-05T02:43:41.725Z,11.55
2022-10-05T02:46:23.031Z,11.32
2022-10-05T02:49:04.611Z,11.48
2022-10-05T02:51:40.690Z,12.10
2022-10-05T02:54:17.436Z,11.13
2022-10-05T02:56:51.156Z,11.80
2022-10-05T02:59:26.347Z,11.30
2022-10-05T03:02:01.256Z,11.35
2022-10-05T03:04:39.968Z,11.68
2022-10-05T03:07:15.461Z,11.82
2022-10-05T03:10:01.074Z,12.00
2022-10-05T03:12:52.736Z,11.70
2022-10-05T03:15:49.784Z,12.48
2022-10-05T03:18:33.202Z,12.15
2022-10-05T03:21:17.658Z,12.05
2022-10-05T03:23:59.404Z,11.65
2022-10-05T03:26:39.579Z,11.05
2022-10-05T03:29:22.223Z,12.27
2022-10-05T03:31:59.704Z,11.07
2022-10-05T03:34:39.106Z,12.85
2022-10-05T03:37:15.428Z,12.35
2022-10-05T03:39:50.341Z,11.82
2022-10-05T03:42:31.708Z,11.65
2022-10-05T03:45:06.639Z,11.98
2022-10-05T03:47:44.808Z,12.45
2022-10-05T03:50:32.963Z,12.52
2022-10-05T03:53:05.868Z,13.10
2022-10-05T03:55:40.790Z,11.90
2022-10-05T03:58:14.769Z,12.23
2022-10-05T04:00:47.339Z,12.40
2022-10-05T04:03:21.678Z,13.02
2022-10-05T04:05:56.752Z,12.07
2022-10-05T04:08:35.285Z,13.52
2022-10-05T04:11:11.274Z,12.52
2022-10-05T04:13:43.876Z,13.63
2022-10-05T04:16:17.661Z,12.30
2022-10-05T04:18:51.811Z,12.70
2022-10-05T04:21:24.253Z,12.23
2022-10-05T04:24:00.857Z,12.00
2022-10-05T04:26:38.488Z,12.73
2022-10-05T04:29:14.402Z,12.40
2022-10-05T04:32:03.783Z,11.90
2022-10-05T04:34:48.576Z,11.27
2022-10-05T04:37:24.878Z,11.43
2022-10-05T04:40:04.873Z,12.73
2022-10-05T04:42:39.485Z,11.80
2022-10-05T04:45:21.910Z,11.18
2022-10-05T04:48:14.409Z,11.88
2022-10-05T04:50:56.303Z,11.07
2022-10-05T04:53:33.019Z,11.98
2022-10-05T04:56:09.350Z,11.82
2022-10-05T04:58:54.653Z,11.95
2022-10-05T05:01:47.011Z,11.43
2022-10-05T05:04:38.575Z,12.27
2022-10-05T05:07:20.111Z,11.48
2022-10-05T05:10:08.925Z,10.85
2022-10-05T05:12:50.842Z,11.77
2022-10-05T05:15:38.479Z,12.65
2022-10-05T05:18:30.415Z,11.75
2022-10-05T05:21:07.298Z,11.43
2022-10-05T05:23:41.743Z,10.70
2022-10-05T05:26:21.593Z,11.68
2022-10-05T05:28:59.989Z,11.45
2022-10-05T05:31:39.178Z,12.18
2022-10-05T05:34:18.721Z,12.15
2022-10-05T05:36:58.066Z,11.95
2022-10-05T05:39:30.483Z,11.38
2022-10-05T05:42:08.588Z,11.27
2022-10-05T05:44:45.221Z,12.07
2022-10-05T05:47:20.783Z,11.77
2022-10-05T05:50:21.120Z,10.35
2022-10-05T05:52:56.267Z,10.77
2022-10-05T05:55:30.758Z,10.85
2022-10-05T05:58:10.358Z,10.57
2022-10-05T06:00:44.205Z,11.27
2022-10-05T06:03:17.905Z,12.52
2022-10-05T06:05:52.229Z,11.82
2022-10-05T06:08:24.814Z,11.60
2022-10-05T06:11:02.567Z,12.15
2022-10-05T06:13:39.525Z,10.85
2022-10-05T06:16:18.662Z,11.20
2022-10-05T06:18:52.921Z,10.90
2022-10-05T06:21:28.061Z,10.90
2022-10-05T06:24:02.015Z,10.45
2022-10-05T06:26:44.619Z,10.35
2022-10-05T06:29:19.732Z,10.57
2022-10-05T06:32:03.580Z,9.98
2022-10-05T06:34:54.885Z,9.80
2022-10-05T06:37:38.126Z,9.65
2022-10-05T06:40:17.659Z,9.40
2022-10-05T06:42:56.913Z,10.27
2022-10-05T06:45:47.891Z,10.43
2022-10-05T06:48:37.205Z,10.20
2022-10-05T06:51:35.996Z,9.63
2022-10-05T06:55:02.199Z,9.50
2022-10-05T06:57:45.897Z,8.85
2022-10-05T07:00:20.499Z,8.85
2022-10-05T07:02:58.861Z,10.48
2022-10-05T07:05:44.109Z,9.18
2022-10-05T07:08:19.073Z,8.85
2022-10-05T07:11:04.405Z,8.48
2022-10-05T07:13:52.581Z,8.50
2022-10-05T07:16:31.902Z,9.48
2022-10-05T07:19:17.001Z,7.95
2022-10-05T07:21:55.414Z,8.52
2022-10-05T07:24:31.770Z,7.60
2022-10-05T07:27:10.907Z,8.50
2022-10-05T07:29:47.778Z,8.65
2022-10-05T07:32:29.390Z,8.60
2022-10-05T07:35:30.812Z,8.45
2022-10-05T07:38:05.645Z,8.18
2022-10-05T07:40:42.630Z,7.78
2022-10-05T07:43:57.507Z,7.82
2022-10-05T07:46:28.301Z,7.35
2022-10-05T07:49:04.297Z,7.32
2022-10-05T07:51:41.000Z,7.28
2022-10-05T07:54:22.261Z,6.93
2022-10-05T07:56:56.949Z,6.82
2022-10-05T07:59:32.104Z,6.68
2022-10-05T08:02:14.004Z,6.32
2022-10-05T08:04:54.633Z,6.78
2022-10-05T08:09:59.670Z,6.15
2022-10-05T08:12:33.437Z,6.75
2022-10-05T08:15:10.731Z,6.90
2022-10-05T08:17:50.475Z,6.57
2022-10-05T08:20:36.690Z,7.07
2022-10-05T08:23:17.101Z,6.00
2022-10-05T08:25:52.308Z,5.93
2022-10-05T08:28:25.617Z,6.28
2022-10-05T08:31:03.771Z,6.32
2022-10-05T08:33:43.601Z,5.93
2022-10-05T08:36:15.558Z,6.07
2022-10-05T08:38:45.639Z,5.93
2022-10-05T08:41:43.842Z,5.55
2022-10-05T08:44:58.017Z,5.57
2022-10-05T08:47:48.226Z,5.30
2022-10-05T08:50:31.241Z,5.63
2022-10-05T08:53:30.379Z,4.72
2022-10-05T08:56:31.713Z,4.50
2022-10-05T08:59:29.612Z,4.88
2022-10-05T09:02:15.883Z,5.07
2022-10-05T09:05:03.566Z,5.10
2022-10-05T09:08:05.325Z,4.95
2022-10-05T09:11:03.896Z,4.60
2022-10-05T09:14:05.511Z,5.05
2022-10-05T09:17:08.263Z,4.72
2022-10-05T09:20:11.053Z,4.90
2022-10-05T09:23:04.139Z,4.85
2022-10-05T09:25:57.616Z,4.80
2022-10-05T09:28:34.217Z,4.85
2022-10-05T09:31:19.686Z,5.03
2022-10-05T09:34:32.670Z,4.47
2022-10-05T09:37:29.747Z,4.85
2022-10-05T09:40:44.632Z,5.43
2022-10-05T09:43:38.627Z,4.50
2022-10-05T09:46:41.505Z,4.70
2022-10-05T09:49:28.895Z,4.70
2022-10-05T09:52:22.827Z,4.75
2022-10-05T09:55:35.981Z,4.80
2022-10-05T09:58:49.786Z,4.85
2022-10-05T10:01:39.398Z,5.15
2022-10-05T10:04:33.516Z,4.75
2022-10-05T10:07:28.688Z,4.80
2022-10-05T10:10:38.971Z,4.22
2022-10-05T10:13:39.273Z,5.38
2022-10-05T10:16:23.718Z,4.55
2022-10-05T10:19:14.581Z,4.50
2022-10-05T10:22:11.364Z,4.05
2022-10-05T10:25:07.823Z,4.40
2022-10-05T10:27:55.791Z,5.28
2022-10-05T10:30:47.831Z,4.57
2022-10-05T10:33:54.220Z,4.10
2022-10-05T10:36:38.523Z,4.53
2022-10-05T10:39:13.466Z,4.63
2022-10-05T10:42:01.714Z,3.92
2022-10-05T10:45:03.435Z,3.97
2022-10-05T10:47:54.655Z,3.95
2022-10-05T10:50:50.561Z,3.83
2022-10-05T10:53:32.766Z,4.28
2022-10-05T10:56:21.873Z,4.15
2022-10-05T10:59:26.723Z,4.05
2022-10-05T11:02:21.078Z,4.10
2022-10-05T11:05:18.908Z,4.03
2022-10-05T11:08:08.070Z,3.88
2022-10-05T11:11:05.998Z,3.30
2022-10-05T11:14:17.386Z,4.22
2022-10-05T11:17:21.308Z,4.20
2022-10-05T11:20:05.381Z,4.03
2022-10-05T11:22:51.593Z,4.13
2022-10-05T11:25:53.300Z,4.32
2022-10-05T11:28:48.760Z,4.20
2022-10-05T11:31:42.945Z,3.72
2022-10-05T11:34:43.782Z,4.50
2022-10-05T11:37:56.030Z,4.32
2022-10-05T11:40:53.612Z,3.97
2022-10-05T11:43:54.567Z,3.88
2022-10-05T11:46:30.272Z,4.38
2022-10-05T11:49:23.598Z,4.32
2022-10-05T11:52:03.557Z,4.25
2022-10-05T11:55:11.959Z,3.83
2022-10-05T11:57:49.427Z,4.05
2022-10-05T12:00:21.012Z,3.92
2022-10-05T12:03:11.847Z,4.10
2022-10-05T12:05:52.171Z,4.38
2022-10-05T12:08:29.908Z,4.60
2022-10-05T12:11:09.097Z,4.25
2022-10-05T12:13:44.203Z,4.60
2022-10-05T12:16:19.458Z,3.97
2022-10-05T12:18:54.512Z,4.40
2022-10-05T12:21:36.632Z,4.45
2022-10-05T12:24:14.188Z,4.38
2022-10-05T12:26:47.717Z,4.38
2022-10-05T12:29:22.753Z,4.90
2022-10-05T12:31:59.935Z,4.60
2022-10-05T12:34:39.625Z,4.45
2022-10-05T12:37:15.493Z,4.78
2022-10-05T12:39:50.045Z,5.18
2022-10-05T12:42:29.488Z,4.85
2022-10-05T12:45:18.180Z,4.63
2022-10-05T12:48:18.914Z,4.75
2022-10-05T12:50:50.832Z,5.65
2022-10-05T12:53:34.246Z,5.10
2022-10-05T12:56:10.153Z,5.32
2022-10-05T12:58:50.750Z,5.40
2022-10-05T13:01:34.241Z,5.55
2022-10-05T13:04:21.740Z,5.47
2022-10-05T13:07:06.062Z,5.18
2022-10-05T13:09:41.646Z,5.00
2022-10-05T13:12:18.184Z,6.20
2022-10-05T13:15:00.607Z,5.10
2022-10-05T13:17:40.251Z,5.57
2022-10-05T13:20:21.562Z,4.40
2022-10-05T13:22:56.257Z,5.90
2022-10-05T13:25:32.030Z,5.60
2022-10-05T13:28:19.991Z,5.63
2022-10-05T13:31:07.003Z,4.78
2022-10-05T13:34:02.300Z,5.05
2022-10-05T13:36:41.067Z,4.82
2022-10-05T13:39:19.168Z,5.13
2022-10-05T13:41:59.696Z,5.82
2022-10-05T13:44:35.860Z,4.60
2022-10-05T13:47:12.663Z,5.00
2022-10-05T13:49:56.109Z,5.50
2022-10-05T13:52:43.907Z,5.43
2022-10-05T13:55:22.624Z,5.43
2022-10-05T13:58:02.278Z,5.60
2022-10-05T14:00:31.781Z,5.50
2022-10-05T14:03:02.212Z,5.63
2022-10-05T14:05:32.552Z,4.50
2022-10-05T14:08:18.155Z,5.13
2022-10-05T14:10:48.722Z,5.13
2022-10-05T14:13:26.761Z,5.22
2022-10-05T14:16:05.690Z,5.05
2022-10-05T14:18:37.774Z,4.90
2022-10-05T14:21:19.472Z,5.55
2022-10-05T14:23:47.663Z,4.65
2022-10-05T14:26:21.628Z,5.18
2022-10-05T14:29:01.069Z,5.32
2022-10-05T14:31:32.213Z,4.43
2022-10-05T14:34:26.863Z,4.75
2022-10-05T14:37:00.296Z,4.75
2022-10-05T14:39:29.655Z,5.00
2022-10-05T14:42:03.412Z,5.15
2022-10-05T14:44:33.925Z,4.63
2022-10-05T14:47:22.642Z,4.93
2022-10-05T14:50:10.842Z,5.13
2022-10-05T14:52:41.243Z,4.60
2022-10-05T14:55:30.448Z,5.07
2022-10-05T14:58:17.474Z,4.80
2022-10-05T15:00:57.515Z,4.70
2022-10-05T15:03:36.457Z,5.50
2022-10-05T15:06:13.143Z,5.30
2022-10-05T15:08:53.564Z,5.10
2022-10-05T15:11:31.769Z,5.93
2022-10-05T15:14:02.576Z,5.15
2022-10-05T15:16:35.377Z,4.78
2022-10-05T15:19:16.069Z,5.65
2022-10-05T15:22:01.670Z,5.35
2022-10-05T15:24:41.261Z,5.50
2022-10-05T15:27:18.018Z,4.95
2022-10-05T15:30:03.356Z,5.63
2022-10-05T15:32:49.884Z,5.38
2022-10-05T15:35:54.343Z,6.25
2022-10-05T15:38:26.455Z,5.55
2022-10-05T15:41:03.026Z,5.60
2022-10-05T15:43:42.210Z,5.60
2022-10-05T15:46:16.530Z,6.00
2022-10-05T15:48:53.581Z,5.75
2022-10-05T15:51:42.452Z,5.63
2022-10-05T15:54:39.630Z,5.70
2022-10-05T15:57:20.873Z,6.80
2022-10-05T15:59:59.279Z,5.65
2022-10-05T16:02:34.657Z,6.00
2022-10-05T16:05:20.016Z,6.05
2022-10-05T16:08:09.864Z,6.18
2022-10-05T16:10:45.063Z,5.85
2022-10-05T16:13:27.947Z,6.05
2022-10-05T16:16:12.742Z,6.60
2022-10-05T16:18:55.010Z,5.85
2022-10-05T16:21:31.291Z,5.97
2022-10-05T16:24:15.841Z,6.50
2022-10-05T16:26:57.146Z,5.55
2022-10-05T16:29:35.216Z,6.18
2022-10-05T16:32:08.104Z,6.43
2022-10-05T16:34:53.710Z,6.53
2022-10-05T16:37:34.846Z,7.38
2022-10-05T16:40:09.722Z,6.43
2022-10-05T16:42:52.820Z,7.13
2022-10-05T16:45:28.758Z,6.90
2022-10-05T16:48:05.592Z,5.80
2022-10-05T16:50:43.212Z,5.82
2022-10-05T16:53:18.563Z,6.90
2022-10-05T16:55:53.065Z,6.93
2022-10-05T16:58:27.584Z,6.60
2022-10-05T17:01:12.033Z,6.90
2022-10-05T17:03:58.936Z,7.70
2022-10-05T17:06:58.880Z,6.78
2022-10-05T17:09:57.925Z,6.15
2022-10-05T17:12:42.380Z,6.38
2022-10-05T17:15:29.794Z,6.68
2022-10-05T17:18:23.874Z,6.95
2022-10-05T17:21:02.564Z,6.68
2022-10-05T17:23:47.305Z,7.28
2022-10-05T17:26:54.182Z,6.65
2022-10-05T17:29:30.953Z,7.15
2022-10-05T17:32:02.972Z,7.47
2022-10-05T17:34:34.914Z,7.03
2022-10-05T17:37:19.163Z,7.90
2022-10-05T17:39:53.477Z,7.32
2022-10-05T17:42:49.871Z,7.45
2022-10-05T17:45:52.879Z,7.53
2022-10-05T17:49:06.775Z,8.15
2022-10-05T17:52:16.092Z,7.45
2022-10-05T17:55:30.913Z,7.75
2022-10-05T17:58:01.739Z,7.22
2022-10-05T18:00:40.446Z,7.93
2022-10-05T18:03:36.260Z,8.35
2022-10-05T18:06:34.234Z,8.57
2022-10-05T18:09:37.561Z,9.25
2022-10-05T18:12:29.384Z,7.82
2022-10-05T18:15:03.152Z,8.48
2022-10-05T18:17:41.465Z,7.72
2022-10-05T18:20:34.988Z,8.50
2022-10-05T18:23:35.933Z,8.30
2022-10-05T18:26:20.969Z,8.20
2022-10-05T18:29:13.717Z,8.70
2022-10-05T18:31:50.130Z,8.02
2022-10-05T18:34:32.362Z,8.70
2022-10-05T18:37:14.988Z,7.90
2022-10-05T18:39:59.534Z,8.85
2022-10-05T18:42:37.864Z,8.95
2022-10-05T18:45:21.695Z,8.57
2022-10-05T18:48:00.026Z,8.75
2022-10-05T18:50:33.165Z,8.40
2022-10-05T18:53:16.319Z,7.82
2022-10-05T18:55:57.242Z,9.00
2022-10-05T18:58:29.930Z,8.65
2022-10-05T19:01:30.182Z,9.07
2022-10-05T19:04:10.327Z,8.93
2022-10-05T19:06:49.346Z,8.40
2022-10-05T19:09:34.836Z,8.40
2022-10-05T19:12:13.555Z,9.35
2022-10-05T19:14:54.288Z,9.65
2022-10-05T19:17:26.334Z,8.93
2022-10-05T19:20:11.913Z,8.55
2022-10-05T19:22:55.443Z,8.43
2022-10-05T19:25:37.827Z,8.80
2022-10-05T19:28:19.183Z,8.50
2022-10-05T19:31:01.230Z,8.32
2022-10-05T19:33:39.803Z,8.50
2022-10-05T19:36:26.576Z,9.18
2022-10-05T19:39:03.576Z,8.05
2022-10-05T19:41:45.653Z,7.35
2022-10-05T19:44:24.475Z,8.07
2022-10-05T19:47:01.732Z,8.02
2022-10-05T19:49:44.492Z,8.65
2022-10-05T19:52:21.091Z,7.85
2022-10-05T19:55:04.775Z,8.07
2022-10-05T19:57:35.017Z,7.72
2022-10-05T20:00:03.950Z,7.95
2022-10-05T20:02:33.378Z,8.02
2022-10-05T20:05:08.248Z,7.82
2022-10-05T20:07:37.063Z,8.85
2022-10-05T20:10:29.635Z,8.27
2022-10-05T20:13:01.038Z,8.07
2022-10-05T20:15:49.006Z,7.93
2022-10-05T20:18:57.449Z,8.25
2022-10-05T20:21:53.538Z,8.18
2022-10-05T20:24:23.514Z,7.53
2022-10-05T20:27:16.162Z,8.70
2022-10-05T20:29:47.034Z,7.97
2022-10-05T20:32:18.009Z,8.13
2022-10-05T20:34:48.035Z,7.57
2022-10-05T20:37:18.539Z,8.20
2022-10-05T20:39:48.744Z,8.30
2022-10-05T20:42:17.112Z,7.30
2022-10-05T20:44:49.927Z,7.82
2022-10-05T20:47:22.774Z,7.45
2022-10-05T20:49:51.084Z,7.80
2022-10-05T20:52:19.667Z,8.27
2022-10-05T20:54:48.133Z,8.43
2022-10-05T20:57:16.636Z,8.13
2022-10-05T20:59:47.281Z,8.73
2022-10-05T21:02:15.531Z,8.10
2022-10-05T21:04:47.530Z,8.85
2022-10-05T21:07:16.800Z,9.15
2022-10-05T21:09:47.326Z,9.60
2022-10-05T21:12:16.448Z,8.82
2022-10-05T21:14:47.673Z,8.10
2022-10-05T21:17:15.939Z,8.45
2022-10-05T21:19:44.291Z,7.10
2022-10-05T21:22:12.706Z,7.65
2022-10-05T21:24:42.011Z,8.52
2022-10-05T21:27:11.220Z,8.50
2022-10-05T21:29:41.245Z,8.30
2022-10-05T21:32:11.883Z,9.02
2022-10-05T21:34:41.296Z,7.57
2022-10-05T21:37:10.051Z,7.55
2022-10-05T21:39:38.331Z,7.85
2022-10-05T21:42:10.198Z,7.03
2022-10-05T21:44:38.488Z,8.20
2022-10-05T21:47:07.615Z,8.20
2022-10-05T21:49:37.783Z,7.82
2022-10-05T21:52:06.742Z,8.48
2022-10-05T21:54:35.888Z,8.02
2022-10-05T21:57:04.592Z,7.78
2022-10-05T21:59:35.095Z,8.88
2022-10-05T22:02:03.552Z,8.48
2022-10-05T22:04:31.712Z,7.93
2022-10-05T22:07:01.360Z,8.52
2022-10-05T22:09:29.524Z,8.57
2022-10-05T22:11:57.864Z,7.57
2022-10-05T22:14:26.475Z,8.75
2022-10-05T22:16:56.602Z,8.48
2022-10-05T22:19:27.591Z,8.20
2022-10-05T22:21:56.017Z,8.68
2022-10-05T22:24:25.833Z,8.40
2022-10-05T22:26:57.667Z,9.73
2022-10-05T22:29:31.350Z,8.40
2022-10-05T22:32:02.940Z,8.07
2022-10-05T22:34:33.349Z,8.07
2022-10-05T22:37:02.637Z,8.52
2022-10-05T22:39:32.280Z,8.05
2022-10-05T22:42:00.667Z,9.45
2022-10-05T22:44:28.954Z,8.90
2022-10-05T22:46:57.312Z,7.72
2022-10-05T22:49:25.853Z,8.90
2022-10-05T22:51:54.826Z,8.98
2022-10-05T22:54:27.446Z,8.93
2022-10-05T22:56:58.992Z,9.18
2022-10-05T22:59:27.270Z,9.35
2022-10-05T23:01:55.542Z,7.95
2022-10-05T23:04:24.104Z,8.95
2022-10-05T23:06:52.359Z,9.10
2022-10-05T23:09:20.494Z,9.60
2022-10-05T23:11:52.140Z,8.93
2022-10-05T23:14:23.121Z,9.25
2022-10-05T23:16:51.626Z,9.55
2022-10-05T23:19:19.830Z,9.73
2022-10-05T23:21:48.009Z,9.18
2022-10-05T23:24:16.146Z,8.95
2022-10-05T23:26:44.391Z,9.00
2022-10-05T23:29:12.733Z,7.85
2022-10-05T23:31:42.627Z,9.05
2022-10-05T23:34:10.854Z,8.90
2022-10-05T23:36:39.042Z,8.70
2022-10-05T23:39:07.195Z,9.48
2022-10-05T23:41:35.536Z,8.35
2022-10-05T23:44:03.675Z,9.30
2022-10-05T23:46:31.842Z,8.25
2022-10-05T23:49:01.384Z,7.53
2022-10-05T23:51:29.723Z,9.13
2022-10-05T23:53:58.026Z,8.32
2022-10-05T23:56:26.266Z,8.35
2022-10-05T23:58:54.457Z,9.35
